Airfield :
LOGIN :

Register | Disclaimer

   EN    FR    IT 

 










Legend :    VFR   Marginal VFR   IFR   Intensive IFR   Very Intensive IFR
Visi :
Ceiling :
>= 8 km
>= 3000ft
5 to 8 km
1000 to 3000 ft
1500m to 5 km
500 to 1000 ft
800 to 1500m
200 to 500 ft
< 800m
< 200 ft
Symbols :   Thunderstorms  Fog  Heavy snow  Heavy precipitations  Wind > 20 kt
SIGMETs :     Misc.  Thunderstorms  Icing  Turbulence  Mountain Waves  Volcanic Ashes







- Airport Elevation : 313 ft
- IATA code : LEH
- Download approach charts


LFOH - Le Havre Octeville

CURRENT METAR :
  • 210100Z AUTO 17015KT 9999 FEW021 BKN027 OVC034 16/12 Q1007

EXPIRED METARs :
  • 210030Z AUTO 16013KT 9999 BKN024 BKN052 BKN064 15/12 Q1007
  • 210000Z AUTO 15013KT 9999 BKN026 BKN032 BKN100 15/12 Q1007
  • 202330Z AUTO 16014KT 9999 FEW020 SCT110 BKN220 15/11 Q1008
  • 202300Z AUTO 16015G27KT CAVOK 15/11 Q1008
  • 202230Z AUTO 17013KT 9999 FEW042 OVC064 15/10 Q1009
  • 202200Z AUTO 17015KT 140V200 9999 FEW034 BKN042 OVC048 15/10 Q1009

TAF TAF LFOH
Valid from the 20 at 12:00 until the 21 at 12:00 UTC


201100Z 2012/2112 23020G30KT 9999 SCT020
BECMG 2017/2020 16013KT
BECMG 2021/2023 20020G30KT
TEMPO 2100/2104 4000 RA BKN013
TEMPO 2108/2112 22027G40KT 4000 SHRA BKN020CB
ATIS : +33 2 35 54 64 93
No reported NOTAMs for that airfield.
1 SIGMET reported for the Paris FIR (LFFF) :
 
Severe turbulence
LFFF SIGMET 5 VALID 202300/210300 LFPW
LFFF PARIS FIR/UIR SEV TURB FCST WI N4845 W00015 - N5000 W00015 - N5100 E00145 - N4945 E00145 SFC/FL060 MOV E 25KT NC=



MET'MAP, your aeronautical weather chart ! - Copyright ORBIFLY December 2007 - Disclaimer

ORBIFLY MET'MAP TEAM :

Programming & Development : Alexandra Zaïnal
Concept & Development : Baudouin d'Aumeries
Co-Development & Prog : Marc-Olivier Méhu
Technical & hardware support : Manuel Goepfert

Contact : metmap@orbifly.com




SOURCES & CREDITS :

   NOAA